Bookmark and Share
Track history (hours):
 

CMA CGM Herodote

Last reported at 2014-Apr-18 22:33 UTC. Time now 2014-Apr-19 02:02 UTC.
Position N 52°03' E 003°49'.

Length 170 m; draft 8.3 m.

Type: Ship (hazmat cat A). MMSI: 235051085.

NotesDate/timePositionNaut miles runAvg speedWind from/ knotsBaromVisibWave heightAir tempDewpointWater temp
2014-Apr-18 22:33N 52°03' E 003°49'1211.6
2014-Apr-18 21:33N 51°59' E 004°07'1111.1
2014-Apr-18 20:33N 51°54' E 004°23'1 1.1
2014-Apr-18 19:32N 51°53' E 004°24'0 0.0
2014-Apr-18 18:29N 51°53' E 004°24'0 0.0
2014-Apr-18 17:32N 51°53' E 004°24'0 0.0
2014-Apr-18 16:32N 51°53' E 004°24'0 0.0
2014-Apr-18 15:29N 51°53' E 004°24'0 0.0
2014-Apr-18 14:32N 51°53' E 004°24'0 0.0
2014-Apr-18 13:32N 51°53' E 004°24'0 0.0
2014-Apr-18 12:32N 51°53' E 004°24'0 0.0
2014-Apr-18 11:28N 51°53' E 004°24'0 0.0
2014-Apr-18 10:32N 51°53' E 004°24'0 0.0
2014-Apr-18 09:29N 51°53' E 004°24'0 0.0
2014-Apr-18 08:29N 51°53' E 004°24'0 0.0
2014-Apr-18 07:32N 51°53' E 004°24'0 0.0
2014-Apr-18 06:32N 51°53' E 004°24'0 0.0
2014-Apr-18 05:32N 51°53' E 004°24'0 0.0
2014-Apr-18 04:32N 51°53' E 004°24'0 0.0
2014-Apr-18 03:32N 51°53' E 004°24'0 0.0
2014-Apr-18 02:32N 51°53' E 004°24'0 0.0
2014-Apr-18 01:28N 51°53' E 004°24'1 0.6
2014-Apr-18 00:33N 51°53' E 004°24'6 5.8
2014-Apr-17 23:33N 51°55' E 004°15'1110.9
2014-Apr-17 22:33N 51°60' E 004°00'1312.8
2014-Apr-17 21:33N 51°57' E 003°40'4614.7
2014-Apr-17 18:24N 51°40' E 002°30'1315.4
2014-Apr-17 17:33N 51°30' E 002°17'1616.2
2014-Apr-17 16:33N 51°15' E 002°06'1717.0
2014-Apr-17 15:33N 51°05' E 001°44'1918.6
2014-Apr-17 14:33N 50°50' E 001°26'1918.7
2014-Apr-17 13:33N 50°35' E 001°08'1817.7
2014-Apr-17 12:33N 50°28' E 000°43'1918.5
2014-Apr-17 11:32N 50°23' E 000°14'1919.6
2014-Apr-17 10:33N 50°18' W 000°15'2120.6
2014-Apr-17 09:33N 50°12' W 000°45'2121.0
2014-Apr-17 08:33N 50°07' W 001°17'2120.9
2014-Apr-17 07:33N 50°02' W 001°49'2019.7
2014-Apr-17 06:33N 49°57' W 002°19'1918.7
2014-Apr-17 05:33N 49°51' W 002°46'2018.9
2014-Apr-17 04:29N 49°41' W 003°13'1918.8
2014-Apr-17 03:29N 49°31' W 003°38'75816.9
2014-Apr-15 06:33N 37°37' W 009°32'1818.1
2014-Apr-15 05:33N 37°20' W 009°27'7017.5
2014-Apr-15 01:33N 36°32' W 008°24'13619.3
2014-Apr-14 18:31N 35°58' W 005°40'1414.9
2014-Apr-14 17:34N 36°04' W 005°24'4 1.8
2014-Apr-14 15:31N 36°08' W 005°25'0 0.0
2014-Apr-14 14:31N 36°08' W 005°25'0 0.0
2014-Apr-14 13:31N 36°08' W 005°25'0 0.0
2014-Apr-14 11:31N 36°08' W 005°25'1 0.9
2014-Apr-14 10:34N 36°08' W 005°25'4 3.8
2014-Apr-14 09:34N 36°05' W 005°22'2 1.9
2014-Apr-14 08:34N 36°05' W 005°19'2 1.9
2014-Apr-14 07:34N 36°04' W 005°21'1010.4
2014-Apr-14 06:34N 35°57' W 005°31'25316.5
2014-Apr-13 15:12N 33°11' W 009°22'1315.4
2014-Apr-13 14:22N 33°01' W 009°32'1315.6
2014-Apr-13 13:33N 32°51' W 009°41'  

Dump ship's entire track history

sailing weather and tide predictions

CMA CGM Herodote — MFEP — position and weather